Time;durP1;ratioP1;P1;durP2;ratioP2;P2;SDS_P1;SDS_P2;PMS_P1;PMS_P2;Temp;Humidity;BMP_temperature;BMP_pressure;BME280_temperature;BME280_humidity;BME280_pressure;Samples;Min_cycle;Max_cycle;Signal;HPM_P1;HPM_P2
2022/02/22 00:00:48;;;;;;;10.23;3.20;;;4.90;99.90;;;;;;2067335;28;20034;-77
2022/02/22 00:01:49;;;;;;;10.02;3.30;;;4.90;99.90;;;;;;2067113;28;20042;-73
2022/02/22 00:02:50;;;;;;;12.25;3.17;;;4.80;99.90;;;;;;2066621;28;20022;-74
2022/02/22 00:03:50;;;;;;;9.68;2.88;;;4.90;99.90;;;;;;2066070;28;20120;-74
2022/02/22 00:04:51;;;;;;;10.98;2.58;;;4.90;99.90;;;;;;2065981;28;20061;-74
2022/02/22 00:05:54;;;;;;;9.52;2.70;;;4.90;99.90;;;;;;2074281;28;20065;-75
2022/02/22 00:06:55;;;;;;;10.50;3.00;;;4.90;99.90;;;;;;2074148;28;20072;-74
2022/02/22 00:07:55;;;;;;;9.20;2.88;;;4.90;99.90;;;;;;2066695;28;20440;-73
2022/02/22 00:08:56;;;;;;;8.57;2.80;;;4.90;99.90;;;;;;2066826;28;20046;-74
2022/02/22 00:09:57;;;;;;;8.93;2.80;;;4.90;99.90;;;;;;2074033;28;20064;-74
2022/02/22 00:10:58;;;;;;;8.18;2.85;;;4.90;99.90;;;;;;2074339;28;20022;-72
2022/02/22 00:11:59;;;;;;;8.73;2.90;;;4.90;99.90;;;;;;2066830;28;20518;-74
2022/02/22 00:13:00;;;;;;;10.73;2.83;;;4.90;99.90;;;;;;2067156;28;20746;-75
2022/02/22 00:14:03;;;;;;;10.48;2.85;;;4.90;99.90;;;;;;2068917;28;20030;-75
2022/02/22 00:15:05;;;;;;;7.53;2.60;;;4.90;99.90;;;;;;2060726;28;20026;-74
2022/02/22 00:16:07;;;;;;;12.35;2.85;;;4.90;99.90;;;;;;2053809;28;20070;-74
2022/02/22 00:17:08;;;;;;;9.30;2.88;;;5.00;99.90;;;;;;2063574;28;20030;-73
2022/02/22 00:18:09;;;;;;;9.60;2.83;;;5.00;99.90;;;;;;2065453;28;20023;-74
2022/02/22 00:19:11;;;;;;;8.70;2.50;;;5.00;99.90;;;;;;2065443;28;20019;-73
2022/02/22 00:20:12;;;;;;;8.10;2.30;;;5.00;99.90;;;;;;2068862;28;20279;-73
2022/02/22 00:21:13;;;;;;;8.95;2.40;;;5.00;99.90;;;;;;2062320;28;20027;-72
2022/02/22 00:22:14;;;;;;;5.53;2.10;;;5.00;99.90;;;;;;2061880;28;20093;-73
2022/02/22 00:23:14;;;;;;;10.15;2.38;;;5.00;99.90;;;;;;2061717;28;20027;-73
2022/02/22 00:24:16;;;;;;;8.85;2.40;;;5.00;99.90;;;;;;2061190;28;20022;-73
2022/02/22 00:25:16;;;;;;;8.75;2.33;;;5.00;99.90;;;;;;2068259;28;20011;-74
2022/02/22 00:26:18;;;;;;;6.82;2.05;;;5.10;99.90;;;;;;2063841;28;20034;-73
2022/02/22 00:27:18;;;;;;;6.90;2.20;;;5.10;99.90;;;;;;2060223;28;20030;-74
2022/02/22 00:28:20;;;;;;;5.97;2.08;;;5.10;99.90;;;;;;2054003;28;20027;-73
2022/02/22 00:29:25;;;;;;;9.77;2.20;;;5.10;99.90;;;;;;2057888;28;20034;-75
2022/02/22 00:30:26;;;;;;;7.35;2.15;;;5.10;99.90;;;;;;2063714;28;20042;-74
2022/02/22 00:31:27;;;;;;;8.50;2.20;;;5.20;99.90;;;;;;2069668;28;20018;-74
2022/02/22 00:32:28;;;;;;;6.85;2.20;;;5.20;99.90;;;;;;2071813;28;20018;-73
2022/02/22 00:33:29;;;;;;;8.93;2.20;;;5.20;99.90;;;;;;2059105;28;20091;-73
2022/02/22 00:34:31;;;;;;;7.80;2.20;;;5.20;99.90;;;;;;2071974;28;20527;-73
2022/02/22 00:35:34;;;;;;;7.85;2.28;;;5.20;99.90;;;;;;2070821;28;20052;-74
2022/02/22 00:36:35;;;;;;;7.97;2.00;;;5.20;99.90;;;;;;2065684;28;20046;-73
2022/02/22 00:37:37;;;;;;;11.00;2.20;;;5.20;99.90;;;;;;2061416;28;20023;-73
2022/02/22 00:38:38;;;;;;;7.30;2.15;;;5.20;99.90;;;;;;2056614;28;20031;-73
2022/02/22 00:39:38;;;;;;;9.52;2.17;;;5.20;99.90;;;;;;2059076;28;20027;-74
2022/02/22 00:40:39;;;;;;;8.95;1.92;;;5.20;99.90;;;;;;2067019;28;20046;-73
2022/02/22 00:41:40;;;;;;;7.68;2.10;;;5.20;99.90;;;;;;2057786;28;20046;-75
2022/02/22 00:42:41;;;;;;;6.22;1.90;;;5.30;99.90;;;;;;2073200;28;20108;-74
2022/02/22 00:43:42;;;;;;;8.70;2.10;;;5.30;99.90;;;;;;2068722;28;20958;-73
2022/02/22 00:44:43;;;;;;;8.45;2.20;;;5.30;99.90;;;;;;2064953;28;20916;-73
2022/02/22 00:45:44;;;;;;;6.28;1.90;;;5.30;99.90;;;;;;2057750;28;20074;-74
2022/02/22 00:46:46;;;;;;;9.20;2.03;;;5.30;99.90;;;;;;2066333;28;20027;-71
2022/02/22 00:47:47;;;;;;;4.72;1.80;;;5.30;99.90;;;;;;2049768;28;20086;-73
2022/02/22 00:48:48;;;;;;;7.45;2.00;;;5.30;99.90;;;;;;2056796;28;20117;-74
2022/02/22 00:49:49;;;;;;;7.35;2.30;;;5.30;99.90;;;;;;2060420;28;20078;-73
2022/02/22 00:50:49;;;;;;;7.35;2.00;;;5.30;99.90;;;;;;2065647;28;20038;-71
2022/02/22 00:51:53;;;;;;;12.07;2.17;;;5.30;99.90;;;;;;2059315;28;20022;-74
2022/02/22 00:52:57;;;;;;;6.68;1.88;;;5.30;99.90;;;;;;2058096;28;20509;-72
2022/02/22 00:54:06;;;;;;;6.13;2.03;;;5.30;99.90;;;;;;2051222;28;20027;-74
2022/02/22 00:55:08;;;;;;;7.22;1.92;;;5.30;99.90;;;;;;2055515;28;20094;-73
2022/02/22 00:56:10;;;;;;;8.45;1.90;;;5.30;99.90;;;;;;2050474;28;20577;-73
2022/02/22 00:57:11;;;;;;;7.97;2.00;;;5.30;99.90;;;;;;2058751;28;20026;-74
2022/02/22 00:58:12;;;;;;;7.70;2.10;;;5.30;99.90;;;;;;2060995;28;20026;-74
2022/02/22 00:59:13;;;;;;;7.22;2.30;;;5.30;99.90;;;;;;2061857;28;20065;-74
2022/02/22 01:00:16;;;;;;;8.90;2.00;;;5.30;99.90;;;;;;2061041;28;20106;-77
2022/02/22 01:01:17;;;;;;;8.90;2.40;;;5.20;99.90;;;;;;2067840;28;20563;-76
2022/02/22 01:02:19;;;;;;;6.60;2.00;;;5.20;99.90;;;;;;2063665;28;20026;-76
2022/02/22 01:03:20;;;;;;;8.77;2.03;;;5.20;99.90;;;;;;2065992;28;20210;-76
2022/02/22 01:04:20;;;;;;;7.88;2.00;;;5.20;99.90;;;;;;2063875;28;20162;-76
2022/02/22 01:05:21;;;;;;;5.68;1.85;;;5.20;99.90;;;;;;2057937;28;20680;-74
2022/02/22 01:06:22;;;;;;;6.28;2.03;;;5.20;99.90;;;;;;2071138;28;20022;-75
2022/02/22 01:07:23;;;;;;;6.18;1.83;;;5.20;99.90;;;;;;2061904;28;20066;-76
2022/02/22 01:08:24;;;;;;;7.50;1.92;;;5.20;99.90;;;;;;2054192;28;20023;-75
2022/02/22 01:09:25;;;;;;;10.13;2.30;;;5.20;99.90;;;;;;2056352;28;20110;-73
2022/02/22 01:10:31;;;;;;;8.57;2.20;;;5.20;99.90;;;;;;2049408;28;20043;-74
2022/02/22 01:11:33;;;;;;;9.70;2.08;;;5.10;99.90;;;;;;2048700;28;20019;-74
2022/02/22 01:12:34;;;;;;;7.25;2.15;;;5.20;99.90;;;;;;2056888;28;20054;-75
2022/02/22 01:13:40;;;;;;;6.75;1.88;;;5.20;99.90;;;;;;2057535;28;20023;-76
2022/02/22 01:14:42;;;;;;;7.97;2.30;;;5.20;99.90;;;;;;2053986;28;20105;-73
2022/02/22 01:15:43;;;;;;;7.05;2.13;;;5.20;99.90;;;;;;2051210;28;20054;-75
2022/02/22 01:16:44;;;;;;;8.60;2.15;;;5.20;99.90;;;;;;2066643;28;20686;-75
2022/02/22 01:17:45;;;;;;;8.70;2.15;;;5.20;99.90;;;;;;2065812;28;20489;-74
2022/02/22 01:18:48;;;;;;;6.95;2.10;;;5.20;99.90;;;;;;2065676;28;20018;-74
2022/02/22 01:19:49;;;;;;;9.63;2.38;;;5.20;99.90;;;;;;2059229;28;20037;-77
2022/02/22 01:20:50;;;;;;;7.45;2.05;;;5.10;99.90;;;;;;2049060;28;20031;-76
2022/02/22 01:21:51;;;;;;;5.25;2.03;;;5.10;99.90;;;;;;2058366;28;20030;-75
2022/02/22 01:22:54;;;;;;;8.32;2.28;;;5.20;99.90;;;;;;2064503;28;20042;-75
2022/02/22 01:23:55;;;;;;;6.38;2.10;;;5.20;99.90;;;;;;2050349;28;20066;-74
2022/02/22 01:24:56;;;;;;;5.63;2.20;;;5.20;99.90;;;;;;2062633;28;20034;-74
2022/02/22 01:25:58;;;;;;;6.55;2.35;;;5.20;99.90;;;;;;2065963;28;20027;-75
2022/02/22 01:26:59;;;;;;;8.02;2.00;;;5.10;99.90;;;;;;2071394;28;20038;-71
2022/02/22 01:28:01;;;;;;;7.97;2.35;;;5.10;99.90;;;;;;2059414;28;20026;-70
2022/02/22 01:29:02;;;;;;;5.35;2.15;;;5.10;99.90;;;;;;2062966;28;20113;-71
2022/02/22 01:30:07;;;;;;;7.63;2.40;;;5.10;99.90;;;;;;2066960;28;20121;-72
2022/02/22 01:31:11;;;;;;;7.45;2.70;;;5.10;99.90;;;;;;2068411;28;20478;-71
2022/02/22 01:32:12;;;;;;;7.93;2.50;;;5.10;99.90;;;;;;2057693;28;20070;-71
2022/02/22 01:33:12;;;;;;;8.68;2.80;;;5.10;99.90;;;;;;2058879;28;20080;-76
2022/02/22 01:34:13;;;;;;;7.55;2.75;;;5.20;99.90;;;;;;2068559;28;20033;-74
2022/02/22 01:35:14;;;;;;;8.07;2.50;;;5.20;99.90;;;;;;2071539;28;20019;-75
2022/02/22 01:36:15;;;;;;;8.98;2.63;;;5.20;99.90;;;;;;2064627;28;20478;-76
2022/02/22 01:37:16;;;;;;;10.18;2.63;;;5.10;99.90;;;;;;2046614;28;20028;-75
2022/02/22 01:38:17;;;;;;;8.13;2.35;;;5.20;99.90;;;;;;2050271;28;20019;-74
2022/02/22 01:39:18;;;;;;;6.88;2.30;;;5.10;99.90;;;;;;2060056;28;20023;-74
2022/02/22 01:40:22;;;;;;;3.58;2.20;;;5.20;99.90;;;;;;2061621;28;20540;-72
2022/02/22 01:41:29;;;;;;;7.50;2.50;;;5.20;99.90;;;;;;2064193;28;20018;-74
2022/02/22 01:42:30;;;;;;;5.50;2.20;;;5.20;99.90;;;;;;2073488;28;20038;-73
2022/02/22 01:43:39;;;;;;;5.97;2.30;;;5.20;99.90;;;;;;2065972;28;20026;-74
2022/02/22 01:44:40;;;;;;;6.18;2.17;;;5.20;99.90;;;;;;2057070;28;20027;-72
2022/02/22 01:45:42;;;;;;;6.35;2.25;;;5.20;99.90;;;;;;2058830;28;20033;-75
2022/02/22 01:46:55;;;;;;;7.38;2.30;;;5.20;99.90;;;;;;2058380;28;20027;-73
2022/02/22 01:47:58;;;;;;;5.30;2.28;;;5.20;99.90;;;;;;2067494;28;20473;-73
2022/02/22 01:49:04;;;;;;;5.00;2.20;;;5.20;99.90;;;;;;2063043;28;20027;-71
2022/02/22 01:50:07;;;;;;;4.65;2.13;;;5.20;99.90;;;;;;2061335;28;20030;-74
2022/02/22 01:51:11;;;;;;;6.55;2.30;;;5.20;99.90;;;;;;2062089;28;20034;-72
2022/02/22 01:52:12;;;;;;;5.78;2.42;;;5.20;99.90;;;;;;2054153;28;20023;-73
2022/02/22 01:53:15;;;;;;;9.32;2.50;;;5.20;99.90;;;;;;2062214;28;20019;-73
2022/02/22 01:54:16;;;;;;;4.18;2.28;;;5.20;99.90;;;;;;2066173;28;20030;-73
2022/02/22 01:55:21;;;;;;;7.60;2.40;;;5.20;99.90;;;;;;2052404;28;20065;-73
2022/02/22 01:56:24;;;;;;;5.22;2.30;;;5.10;99.90;;;;;;2058626;28;20375;-72
2022/02/22 01:57:29;;;;;;;6.35;2.40;;;5.10;99.90;;;;;;2065454;28;20179;-74
2022/02/22 01:58:34;;;;;;;5.40;2.33;;;5.10;99.90;;;;;;2057940;28;20019;-73
2022/02/22 01:59:41;;;;;;;7.10;2.40;;;5.10;99.90;;;;;;2057998;28;20042;-72
2022/02/22 02:00:48;;;;;;;8.63;2.63;;;5.10;99.90;;;;;;2065141;28;20113;-71
2022/02/22 02:01:49;;;;;;;6.32;2.80;;;5.10;99.90;;;;;;2059146;28;20031;-73
2022/02/22 02:02:51;;;;;;;3.60;2.10;;;5.20;99.90;;;;;;2065348;28;20038;-73
2022/02/22 02:03:53;;;;;;;6.45;2.05;;;5.20;99.90;;;;;;2064433;28;20030;-71
2022/02/22 02:04:54;;;;;;;4.10;2.03;;;5.20;99.90;;;;;;2057781;28;20112;-74
2022/02/22 02:05:55;;;;;;;4.03;1.90;;;5.20;99.90;;;;;;2057726;28;20054;-75
2022/02/22 02:06:57;;;;;;;5.65;2.20;;;5.20;99.90;;;;;;2048993;29;20502;-76
2022/02/22 02:07:58;;;;;;;4.47;2.00;;;5.20;99.90;;;;;;2048581;28;20042;-73
2022/02/22 02:08:59;;;;;;;6.78;2.20;;;5.30;99.90;;;;;;2065077;28;20050;-74
2022/02/22 02:09:59;;;;;;;5.57;2.13;;;5.30;99.90;;;;;;2055709;28;20514;-75
2022/02/22 02:11:00;;;;;;;6.05;2.22;;;5.30;99.90;;;;;;2056298;28;20093;-74
2022/02/22 02:12:01;;;;;;;4.80;2.20;;;5.30;99.90;;;;;;2056994;28;20751;-69
2022/02/22 02:13:02;;;;;;;6.45;2.00;;;5.30;99.90;;;;;;2056703;28;20077;-73
2022/02/22 02:14:03;;;;;;;6.13;2.00;;;5.30;99.90;;;;;;2047466;28;20023;-72
2022/02/22 02:15:04;;;;;;;6.88;2.38;;;5.30;99.90;;;;;;2047796;29;20028;-73
2022/02/22 02:16:06;;;;;;;4.78;2.20;;;5.30;99.90;;;;;;2056426;28;20050;-73
2022/02/22 02:17:07;;;;;;;4.80;2.10;;;5.30;99.90;;;;;;2055784;28;20030;-72
2022/02/22 02:18:07;;;;;;;5.97;2.10;;;5.30;99.90;;;;;;2056148;28;20660;-73
2022/02/22 02:19:10;;;;;;;5.18;1.90;;;5.30;99.90;;;;;;2063666;28;20033;-72
2022/02/22 02:20:11;;;;;;;7.20;2.10;;;5.30;99.90;;;;;;2063358;28;20030;-73
2022/02/22 02:21:14;;;;;;;3.53;1.90;;;5.30;99.90;;;;;;2056605;28;20116;-74
2022/02/22 02:22:14;;;;;;;4.47;1.92;;;5.30;99.90;;;;;;2056536;28;20030;-74
2022/02/22 02:23:15;;;;;;;4.15;1.90;;;5.30;99.90;;;;;;2056749;28;20049;-75
2022/02/22 02:24:24;;;;;;;6.00;1.90;;;5.30;99.90;;;;;;2056355;28;20502;-74
2022/02/22 02:25:25;;;;;;;5.80;2.00;;;5.30;99.90;;;;;;2056901;28;20549;-74
2022/02/22 02:26:25;;;;;;;6.63;2.08;;;5.20;99.90;;;;;;2055882;28;20030;-74
2022/02/22 02:27:26;;;;;;;3.95;2.00;;;5.30;99.90;;;;;;2056230;28;20035;-73
2022/02/22 02:28:27;;;;;;;3.05;1.80;;;5.20;99.90;;;;;;2056146;28;20031;-74
2022/02/22 02:29:28;;;;;;;4.78;1.88;;;5.20;99.90;;;;;;2055609;28;20034;-75
2022/02/22 02:30:29;;;;;;;4.55;1.70;;;5.20;99.90;;;;;;2056470;28;20038;-74
2022/02/22 02:31:30;;;;;;;3.75;1.80;;;5.20;99.90;;;;;;2056321;28;20446;-74
2022/02/22 02:32:30;;;;;;;5.18;1.90;;;5.20;99.90;;;;;;2055771;28;20049;-74
2022/02/22 02:33:31;;;;;;;4.45;2.10;;;5.20;99.90;;;;;;2055809;28;20094;-74
2022/02/22 02:34:32;;;;;;;4.90;1.80;;;5.20;99.90;;;;;;2063491;28;20038;-75
2022/02/22 02:35:32;;;;;;;3.40;1.80;;;5.20;99.90;;;;;;2063772;28;20030;-75
2022/02/22 02:36:35;;;;;;;3.97;2.00;;;5.20;99.90;;;;;;2063560;28;20042;-75
2022/02/22 02:37:37;;;;;;;3.90;1.70;;;5.10;99.90;;;;;;2063515;28;20018;-73
2022/02/22 02:38:37;;;;;;;3.85;1.70;;;5.20;99.90;;;;;;2063531;28;20410;-73
2022/02/22 02:39:38;;;;;;;4.82;1.90;;;5.20;99.90;;;;;;2063267;28;20036;-75
2022/02/22 02:40:39;;;;;;;3.90;1.88;;;5.20;99.90;;;;;;2056301;28;20046;-74
2022/02/22 02:41:44;;;;;;;5.43;2.00;;;5.20;99.90;;;;;;2055716;28;20109;-75
2022/02/22 02:42:44;;;;;;;5.85;2.10;;;5.20;99.90;;;;;;2048334;28;20102;-74
2022/02/22 02:43:45;;;;;;;5.53;1.77;;;5.10;99.90;;;;;;2047816;28;20043;-75
2022/02/22 02:44:47;;;;;;;3.85;1.70;;;5.20;99.90;;;;;;2047621;28;20070;-74
2022/02/22 02:45:48;;;;;;;3.80;1.73;;;5.10;99.90;;;;;;2056024;28;20027;-73
2022/02/22 02:46:49;;;;;;;5.72;1.80;;;5.10;99.90;;;;;;2056625;28;20058;-75
2022/02/22 02:47:50;;;;;;;4.40;1.58;;;5.20;99.90;;;;;;2063715;28;20066;-73
2022/02/22 02:48:53;;;;;;;5.65;1.60;;;5.10;99.90;;;;;;2063825;28;20034;-75
2022/02/22 02:49:53;;;;;;;4.25;1.50;;;5.10;99.90;;;;;;2055805;28;20074;-74
2022/02/22 02:50:54;;;;;;;6.10;1.73;;;5.20;99.90;;;;;;2056643;28;20026;-75
2022/02/22 02:51:55;;;;;;;4.93;1.60;;;5.10;99.90;;;;;;2056732;28;20132;-75
2022/02/22 02:52:56;;;;;;;5.68;1.80;;;5.10;99.90;;;;;;2055811;28;20023;-76
2022/02/22 02:53:56;;;;;;;4.80;1.50;;;5.10;99.90;;;;;;2055646;28;20026;-75
2022/02/22 02:54:57;;;;;;;4.65;1.60;;;5.10;99.90;;;;;;2064264;28;20394;-75
2022/02/22 02:55:58;;;;;;;4.53;1.60;;;5.10;99.90;;;;;;2064140;28;20097;-74
2022/02/22 02:56:58;;;;;;;7.85;1.70;;;5.10;99.90;;;;;;2055885;28;20035;-75
2022/02/22 02:57:59;;;;;;;6.68;1.88;;;5.20;99.90;;;;;;2055920;28;20023;-72
2022/02/22 02:59:02;;;;;;;2.78;1.50;;;5.20;99.90;;;;;;2056585;28;20042;-73
2022/02/22 03:00:05;;;;;;;4.95;1.60;;;5.20;99.90;;;;;;2055961;28;20085;-73
2022/02/22 03:01:06;;;;;;;3.92;1.60;;;5.10;99.90;;;;;;2056354;28;20030;-72
2022/02/22 03:02:07;;;;;;;6.43;1.75;;;5.20;99.90;;;;;;2056476;28;20033;-73
2022/02/22 03:03:07;;;;;;;5.05;1.60;;;5.20;99.90;;;;;;2056278;28;20054;-73
2022/02/22 03:04:09;;;;;;;5.10;1.52;;;5.20;99.90;;;;;;2056122;28;20058;-72
2022/02/22 03:05:10;;;;;;;5.20;1.60;;;5.20;99.90;;;;;;2056318;28;20030;-73
2022/02/22 03:06:11;;;;;;;5.55;1.70;;;5.20;99.90;;;;;;2063790;28;20082;-73
2022/02/22 03:07:12;;;;;;;5.53;1.65;;;5.20;99.90;;;;;;2063655;28;20022;-73
2022/02/22 03:08:12;;;;;;;3.80;1.52;;;5.10;99.90;;;;;;2063609;28;20072;-73
2022/02/22 03:09:13;;;;;;;5.47;1.70;;;5.10;99.90;;;;;;2063966;28;20027;-72
2022/02/22 03:10:14;;;;;;;5.22;1.67;;;5.10;99.90;;;;;;2063769;28;20022;-72
2022/02/22 03:11:15;;;;;;;5.13;1.80;;;5.10;99.90;;;;;;2064313;28;20035;-72
2022/02/22 03:12:15;;;;;;;7.38;2.20;;;5.10;99.90;;;;;;2064937;28;20418;-72
2022/02/22 03:13:16;;;;;;;6.70;2.00;;;5.10;99.90;;;;;;2057564;28;20031;-72
2022/02/22 03:14:17;;;;;;;7.05;1.88;;;5.10;99.90;;;;;;2057294;28;20066;-72
2022/02/22 03:15:18;;;;;;;3.17;1.70;;;5.10;99.90;;;;;;2065364;28;20363;-72
2022/02/22 03:16:18;;;;;;;5.22;1.70;;;5.10;99.90;;;;;;2064921;28;20031;-72
2022/02/22 03:17:19;;;;;;;6.43;1.95;;;5.10;99.90;;;;;;2057278;28;20039;-71
2022/02/22 03:18:19;;;;;;;7.35;2.30;;;5.10;99.90;;;;;;2057203;28;20061;-72
2022/02/22 03:19:20;;;;;;;5.78;1.90;;;5.10;99.90;;;;;;2057848;28;20721;-72
2022/02/22 03:20:21;;;;;;;4.60;1.88;;;5.10;99.90;;;;;;2058016;28;20035;-73
2022/02/22 03:21:22;;;;;;;4.72;2.00;;;5.10;99.90;;;;;;2058189;28;20027;-72
2022/02/22 03:22:23;;;;;;;4.72;2.08;;;5.10;99.90;;;;;;2057564;28;20035;-73
2022/02/22 03:23:23;;;;;;;6.88;2.17;;;5.10;99.90;;;;;;2057029;28;20038;-72
2022/02/22 03:24:24;;;;;;;6.10;2.03;;;5.10;99.90;;;;;;2056429;28;20042;-72
2022/02/22 03:25:24;;;;;;;5.25;1.98;;;5.10;99.90;;;;;;2064427;28;20053;-72
2022/02/22 03:26:26;;;;;;;5.72;2.22;;;5.10;99.90;;;;;;2057460;28;20034;-73
2022/02/22 03:27:27;;;;;;;4.55;2.03;;;5.10;99.90;;;;;;2057127;28;20046;-72
2022/02/22 03:28:27;;;;;;;4.88;2.03;;;5.10;99.90;;;;;;2056295;28;20031;-72
2022/02/22 03:29:28;;;;;;;4.57;1.85;;;5.10;99.90;;;;;;2056846;28;20027;-72
2022/02/22 03:30:32;;;;;;;5.53;2.10;;;5.10;99.90;;;;;;2057161;28;20034;-71
2022/02/22 03:31:32;;;;;;;7.05;2.15;;;5.10;99.90;;;;;;2056945;28;20034;-72
2022/02/22 03:32:33;;;;;;;6.38;2.00;;;5.10;99.90;;;;;;2056848;28;20102;-72
2022/02/22 03:33:33;;;;;;;5.18;1.80;;;5.10;99.90;;;;;;2057058;28;20379;-72
2022/02/22 03:35:00;;;;;;;4.93;1.80;;;5.10;99.90;;;;;;2056248;28;20060;-73
2022/02/22 03:36:09;;;;;;;5.35;1.98;;;5.10;99.90;;;;;;2049974;28;20035;-72
2022/02/22 03:37:13;;;;;;;3.88;1.90;;;5.10;99.90;;;;;;2056240;28;20050;-72
2022/02/22 03:38:42;;;;;;;5.75;1.90;;;5.10;99.90;;;;;;2064195;28;20456;-73
2022/02/22 03:40:03;;;;;;;4.18;1.67;;;5.10;99.90;;;;;;2064714;28;20034;-73
2022/02/22 03:41:04;;;;;;;4.28;1.73;;;5.00;99.90;;;;;;2057068;28;20089;-71
2022/02/22 03:42:05;;;;;;;4.50;2.00;;;5.00;99.90;;;;;;2055867;28;20019;-71
2022/02/22 03:43:06;;;;;;;4.40;1.90;;;5.00;99.90;;;;;;2056179;28;20027;-71
2022/02/22 03:44:06;;;;;;;6.78;2.20;;;5.00;99.90;;;;;;2056102;28;20035;-72
2022/02/22 03:45:10;;;;;;;4.68;2.00;;;5.00;99.90;;;;;;2063724;28;20441;-72
2022/02/22 03:46:11;;;;;;;6.15;2.20;;;5.00;99.90;;;;;;2063403;28;20034;-71
2022/02/22 03:47:11;;;;;;;7.15;2.22;;;5.00;99.90;;;;;;2055661;28;20059;-72
2022/02/22 03:48:12;;;;;;;5.72;2.00;;;5.00;99.90;;;;;;2055681;28;20425;-72
2022/02/22 03:49:12;;;;;;;4.60;1.80;;;4.90;99.90;;;;;;2064376;28;20040;-71
2022/02/22 03:50:15;;;;;;;9.65;3.35;;;5.00;99.90;;;;;;2064440;28;20133;-72
2022/02/22 03:51:16;;;;;;;7.72;4.15;;;5.00;99.90;;;;;;2057821;28;20126;-72
2022/02/22 03:52:16;;;;;;;8.40;3.65;;;5.00;99.90;;;;;;2057739;28;20095;-72
2022/02/22 03:53:17;;;;;;;7.68;2.45;;;5.00;99.90;;;;;;2057857;28;20039;-72
2022/02/22 03:54:17;;;;;;;7.50;2.22;;;5.00;99.90;;;;;;2057466;28;20026;-72
2022/02/22 03:55:19;;;;;;;6.32;2.15;;;5.10;99.90;;;;;;2057897;28;20147;-72
2022/02/22 03:56:20;;;;;;;8.80;2.60;;;5.10;99.90;;;;;;2057775;28;20018;-72
2022/02/22 03:57:20;;;;;;;5.00;1.98;;;5.10;99.90;;;;;;2057685;28;20550;-72
2022/02/22 03:58:21;;;;;;;6.18;2.38;;;5.10;99.90;;;;;;2057799;28;20019;-72
2022/02/22 03:59:21;;;;;;;5.60;2.15;;;5.10;99.90;;;;;;2057710;28;20382;-71
2022/02/22 04:00:25;;;;;;;5.80;2.05;;;5.10;99.90;;;;;;2057315;28;20126;-72
2022/02/22 04:01:26;;;;;;;5.55;2.00;;;5.10;99.90;;;;;;2057746;28;20158;-71
2022/02/22 04:02:26;;;;;;;4.50;2.08;;;5.10;99.90;;;;;;2057895;28;20046;-71
2022/02/22 04:03:27;;;;;;;6.05;2.20;;;5.10;99.90;;;;;;2057759;28;20030;-71
2022/02/22 04:04:27;;;;;;;5.60;2.20;;;5.10;99.90;;;;;;2057310;28;20031;-71
2022/02/22 04:05:28;;;;;;;5.75;2.08;;;5.10;99.90;;;;;;2058205;28;20095;-72
2022/02/22 04:06:29;;;;;;;6.22;2.00;;;5.10;99.90;;;;;;2057799;28;20041;-72
2022/02/22 04:07:29;;;;;;;7.72;2.60;;;5.10;99.90;;;;;;2057024;28;20097;-71
2022/02/22 04:08:30;;;;;;;5.78;2.15;;;5.10;99.90;;;;;;2057372;28;20031;-71
2022/02/22 04:09:30;;;;;;;6.88;2.40;;;5.20;99.90;;;;;;2064687;28;20022;-71
2022/02/22 04:10:31;;;;;;;6.93;2.83;;;5.10;99.90;;;;;;2065203;28;20034;-71
2022/02/22 04:11:32;;;;;;;6.50;2.67;;;5.20;99.90;;;;;;2057602;28;20030;-71
2022/02/22 04:12:33;;;;;;;9.57;2.45;;;5.20;99.90;;;;;;2057611;28;20202;-72
2022/02/22 04:13:34;;;;;;;6.10;2.53;;;5.20;99.90;;;;;;2057668;28;20027;-71
2022/02/22 04:14:34;;;;;;;6.45;2.58;;;5.20;99.90;;;;;;2057380;28;20121;-71
2022/02/22 04:15:35;;;;;;;6.65;2.63;;;5.20;99.90;;;;;;2057640;28;20038;-70
2022/02/22 04:16:36;;;;;;;5.20;2.25;;;5.20;99.90;;;;;;2057422;28;20041;-72
2022/02/22 04:17:36;;;;;;;7.38;3.03;;;5.20;99.90;;;;;;2056927;28;20035;-72
2022/02/22 04:18:37;;;;;;;6.93;2.83;;;5.20;99.90;;;;;;2048790;28;20031;-71
2022/02/22 04:19:38;;;;;;;7.00;2.70;;;5.20;99.90;;;;;;2056299;28;20031;-72
2022/02/22 04:20:38;;;;;;;6.68;2.50;;;5.20;99.90;;;;;;2057627;28;20458;-72
2022/02/22 04:21:39;;;;;;;8.25;2.80;;;5.20;99.90;;;;;;2065723;28;20030;-72
2022/02/22 04:22:40;;;;;;;8.02;3.00;;;5.20;99.90;;;;;;2065102;28;20418;-71
2022/02/22 04:23:41;;;;;;;6.60;2.95;;;5.20;99.90;;;;;;2057819;28;20039;-72
2022/02/22 04:24:41;;;;;;;5.55;2.67;;;5.10;99.90;;;;;;2057205;28;20118;-72
2022/02/22 04:25:42;;;;;;;8.63;3.08;;;5.10;99.90;;;;;;2056956;28;20027;-72
2022/02/22 04:26:43;;;;;;;7.30;2.90;;;5.10;99.90;;;;;;2057811;28;20501;-73
2022/02/22 04:27:43;;;;;;;8.40;2.95;;;5.10;99.90;;;;;;2058500;28;20031;-72
2022/02/22 04:28:44;;;;;;;6.07;2.83;;;5.00;99.90;;;;;;2059802;28;20035;-71
2022/02/22 04:29:45;;;;;;;6.78;2.70;;;5.00;99.90;;;;;;2059616;28;20066;-72
2022/02/22 04:30:45;;;;;;;5.15;2.67;;;4.90;99.90;;;;;;2060696;28;20054;-71
2022/02/22 04:31:46;;;;;;;5.75;2.60;;;4.90;99.90;;;;;;2059384;28;20031;-71
2022/02/22 04:32:47;;;;;;;8.15;2.78;;;4.90;99.90;;;;;;2058629;28;20023;-71
2022/02/22 04:33:47;;;;;;;7.68;2.58;;;4.90;99.90;;;;;;2059695;28;20035;-70
2022/02/22 04:34:49;;;;;;;5.80;2.70;;;4.90;99.90;;;;;;2058142;28;20050;-71
2022/02/22 04:35:49;;;;;;;7.45;2.30;;;4.90;99.90;;;;;;2059060;28;20026;-71
2022/02/22 04:36:50;;;;;;;3.58;2.25;;;4.90;99.90;;;;;;2066942;28;20142;-71
2022/02/22 04:37:51;;;;;;;4.05;2.22;;;4.90;99.90;;;;;;2066682;28;20030;-70
2022/02/22 04:38:51;;;;;;;4.28;2.25;;;4.90;99.90;;;;;;2059704;28;20019;-72
2022/02/22 04:39:52;;;;;;;5.05;2.30;;;4.90;99.90;;;;;;2059173;28;20031;-71
2022/02/22 04:40:53;;;;;;;6.50;2.47;;;4.90;99.90;;;;;;2064518;28;20007;-72
2022/02/22 04:41:53;;;;;;;8.73;2.80;;;4.90;99.90;;;;;;2065451;28;20031;-72
2022/02/22 04:42:54;;;;;;;6.80;2.60;;;4.90;99.90;;;;;;2065363;28;20047;-72
2022/02/22 04:43:55;;;;;;;9.05;2.70;;;4.90;99.90;;;;;;2065109;28;20022;-71
2022/02/22 04:44:56;;;;;;;7.95;3.03;;;4.90;99.90;;;;;;2065252;28;20039;-72
2022/02/22 04:45:56;;;;;;;10.25;2.80;;;4.90;99.90;;;;;;2065109;28;20038;-70
2022/02/22 04:46:57;;;;;;;8.25;2.35;;;4.90;99.90;;;;;;2064489;28;20034;-71
2022/02/22 04:47:57;;;;;;;8.85;2.45;;;4.90;99.90;;;;;;2064649;28;20067;-69
2022/02/22 04:48:58;;;;;;;11.45;2.45;;;4.90;99.90;;;;;;2061250;28;20038;-71
2022/02/22 04:49:59;;;;;;;10.65;2.60;;;4.90;99.90;;;;;;2058452;28;20081;-72
2022/02/22 04:50:59;;;;;;;12.30;2.85;;;4.90;99.90;;;;;;2058552;28;20074;-72
2022/02/22 04:52:00;;;;;;;13.75;2.75;;;4.90;99.90;;;;;;2057981;28;20027;-73
2022/02/22 04:53:01;;;;;;;9.50;2.30;;;4.90;99.90;;;;;;2057164;28;20102;-72
2022/02/22 04:54:02;;;;;;;15.00;2.90;;;4.90;99.90;;;;;;2057086;28;20050;-72
2022/02/22 04:55:04;;;;;;;12.80;2.80;;;4.90;99.90;;;;;;2057348;28;20026;-73
2022/02/22 04:56:05;;;;;;;11.27;2.90;;;5.00;99.90;;;;;;2050681;28;20039;-71
2022/02/22 04:57:06;;;;;;;16.30;3.03;;;4.90;99.90;;;;;;2052341;28;20039;-73
2022/02/22 04:58:07;;;;;;;12.20;3.15;;;5.00;99.90;;;;;;2060115;28;20070;-73
2022/02/22 04:59:08;;;;;;;10.93;2.80;;;5.00;99.90;;;;;;2060801;28;20026;-73
2022/02/22 05:00:12;;;;;;;15.60;3.13;;;4.90;99.90;;;;;;2067340;28;20078;-73
2022/02/22 05:01:12;;;;;;;17.95;3.17;;;5.00;99.90;;;;;;2068867;28;20041;-74
2022/02/22 05:02:13;;;;;;;20.38;3.03;;;5.00;99.90;;;;;;2061108;28;20027;-71
2022/02/22 05:03:14;;;;;;;15.88;3.40;;;4.90;99.90;;;;;;2060983;28;20456;-72
2022/02/22 05:04:14;;;;;;;18.48;3.45;;;5.00;99.90;;;;;;2060523;28;20026;-70
2022/02/22 05:05:15;;;;;;;17.67;3.65;;;5.00;99.90;;;;;;2059787;28;20041;-72
2022/02/22 05:06:16;;;;;;;17.17;3.50;;;5.00;99.90;;;;;;2057653;28;20050;-71
2022/02/22 05:07:16;;;;;;;19.13;3.67;;;4.90;99.90;;;;;;2057094;28;20034;-70
2022/02/22 05:08:17;;;;;;;20.30;3.63;;;4.90;99.90;;;;;;2057294;28;20027;-71
2022/02/22 05:09:17;;;;;;;18.67;3.60;;;4.90;99.90;;;;;;2057109;28;20053;-71
2022/02/22 05:10:18;;;;;;;17.60;3.78;;;4.90;99.90;;;;;;2064329;28;20027;-72
2022/02/22 05:11:19;;;;;;;17.98;3.63;;;4.90;99.90;;;;;;2056651;28;20129;-71
2022/02/22 05:12:20;;;;;;;24.42;3.63;;;4.90;99.90;;;;;;2056756;28;20849;-73
2022/02/22 05:13:20;;;;;;;19.88;3.60;;;4.90;99.90;;;;;;2057509;28;20039;-71
2022/02/22 05:14:21;;;;;;;13.80;3.28;;;4.90;99.90;;;;;;2057096;28;20086;-70
2022/02/22 05:15:22;;;;;;;18.27;3.60;;;4.80;99.90;;;;;;2057491;28;20030;-71
2022/02/22 05:16:23;;;;;;;18.95;3.72;;;4.80;99.90;;;;;;2057455;28;20067;-71
2022/02/22 05:17:23;;;;;;;25.05;4.15;;;4.80;99.90;;;;;;2057436;28;20518;-72
2022/02/22 05:18:24;;;;;;;20.23;3.85;;;4.80;99.90;;;;;;2057454;28;20786;-73
2022/02/22 05:19:25;;;;;;;21.60;3.95;;;4.80;99.90;;;;;;2056717;28;20031;-72
2022/02/22 05:20:26;;;;;;;15.90;3.47;;;4.80;99.90;;;;;;2056485;28;20034;-71
2022/02/22 05:21:26;;;;;;;19.77;3.55;;;4.80;99.90;;;;;;2056638;28;20630;-71
2022/02/22 05:22:27;;;;;;;23.48;4.50;;;4.80;99.90;;;;;;2056685;28;20586;-71
2022/02/22 05:23:33;;;;;;;19.17;3.97;;;4.80;99.90;;;;;;2056369;28;20038;-71
2022/02/22 05:24:34;;;;;;;22.10;3.75;;;4.80;99.90;;;;;;2056881;28;20038;-71